createdAt,value
2023-04-08T00:01:38.050Z,6.82
2023-04-08T00:03:39.740Z,6.15
2023-04-08T00:05:41.419Z,6.82
2023-04-08T00:07:42.936Z,6.68
2023-04-08T00:09:44.447Z,6.68
2023-04-08T00:11:46.269Z,6.85
2023-04-08T00:13:47.764Z,6.97
2023-04-08T00:15:49.334Z,6.85
2023-04-08T00:17:50.893Z,6.97
2023-04-08T00:19:52.858Z,7.20
2023-04-08T00:21:54.349Z,6.95
2023-04-08T00:23:55.996Z,8.05
2023-04-08T00:25:57.460Z,7.95
2023-04-08T00:27:58.935Z,7.97
2023-04-08T00:30:00.411Z,7.47
2023-04-08T00:32:01.992Z,7.13
2023-04-08T00:34:03.537Z,7.90
2023-04-08T00:36:05.240Z,8.07
2023-04-08T00:38:08.118Z,7.38
2023-04-08T00:40:09.985Z,8.23
2023-04-08T00:42:11.601Z,7.28
2023-04-08T00:44:13.182Z,7.72
2023-04-08T00:46:14.993Z,8.50
2023-04-08T00:48:16.508Z,7.47
2023-04-08T00:50:18.716Z,7.80
2023-04-08T00:52:20.312Z,7.60
2023-04-08T00:54:21.874Z,7.70
2023-04-08T00:56:24.311Z,8.00
2023-04-08T00:58:25.818Z,7.75
2023-04-08T01:00:30.495Z,8.13
2023-04-08T01:02:59.910Z,8.02
2023-04-08T01:05:04.701Z,7.45
2023-04-08T01:07:38.181Z,9.05
2023-04-08T01:09:44.311Z,8.48
2023-04-08T01:11:49.150Z,8.35
2023-04-08T01:13:53.102Z,9.25
2023-04-08T01:15:55.513Z,8.82
2023-04-08T01:17:59.650Z,9.30
2023-04-08T01:20:04.214Z,8.90
2023-04-08T01:22:15.409Z,9.02
2023-04-08T01:24:29.814Z,8.65
2023-04-08T01:26:31.836Z,9.38
2023-04-08T01:28:35.638Z,8.98
2023-04-08T01:30:39.677Z,8.15
2023-04-08T01:32:44.026Z,7.88
2023-04-08T01:34:45.880Z,7.95
2023-04-08T01:36:49.596Z,8.68
2023-04-08T01:38:51.611Z,8.43
2023-04-08T01:40:55.660Z,8.93
2023-04-08T01:43:00.802Z,8.45
2023-04-08T01:45:03.819Z,9.20
2023-04-08T01:47:05.611Z,10.30
2023-04-08T01:49:08.320Z,10.32
2023-04-08T01:51:11.514Z,11.93
2023-04-08T01:53:13.390Z,11.13
2023-04-08T01:55:15.578Z,11.57
2023-04-08T01:57:24.261Z,11.27
2023-04-08T01:59:31.616Z,12.27
2023-04-08T02:01:35.893Z,12.10
2023-04-08T02:03:38.713Z,11.85
2023-04-08T02:05:40.957Z,11.70
2023-04-08T02:07:42.597Z,12.73
2023-04-08T02:09:44.189Z,12.88
2023-04-08T02:11:45.709Z,12.82
2023-04-08T02:13:47.676Z,18.02
2023-04-08T02:15:57.209Z,14.50
2023-04-08T02:18:13.398Z,13.30
2023-04-08T02:20:21.975Z,13.30
2023-04-08T02:22:36.869Z,13.50
2023-04-08T02:24:39.012Z,13.50
2023-04-08T02:26:43.824Z,14.20
2023-04-08T02:28:48.575Z,13.70
2023-04-08T02:30:52.308Z,13.65
2023-04-08T02:32:54.879Z,14.48
2023-04-08T02:34:58.066Z,14.40
2023-04-08T02:36:59.738Z,14.40
2023-04-08T02:39:01.315Z,14.93
2023-04-08T02:41:02.862Z,15.95
2023-04-08T02:43:04.463Z,15.05
2023-04-08T02:45:06.424Z,14.80
2023-04-08T02:47:07.932Z,14.90
2023-04-08T02:49:09.382Z,15.65
2023-04-08T02:51:10.935Z,14.32
2023-04-08T02:53:12.444Z,14.98
2023-04-08T02:55:13.978Z,13.93
2023-04-08T02:57:17.001Z,14.55
2023-04-08T02:59:18.476Z,13.55
2023-04-08T03:01:20.027Z,13.88
2023-04-08T03:03:27.808Z,13.82
2023-04-08T03:05:29.575Z,13.10
2023-04-08T03:07:32.095Z,12.25
2023-04-08T03:09:33.556Z,12.23
2023-04-08T03:11:35.254Z,12.10
2023-04-08T03:13:37.090Z,12.57
2023-04-08T03:15:38.589Z,11.45
2023-04-08T03:17:40.150Z,11.95
2023-04-08T03:19:41.690Z,11.95
2023-04-08T03:21:43.168Z,11.75
2023-04-08T03:23:45.012Z,11.65
2023-04-08T03:25:46.880Z,11.43
2023-04-08T03:27:48.401Z,11.85
2023-04-08T03:29:50.135Z,11.40
2023-04-08T03:31:51.812Z,11.32
2023-04-08T03:33:53.318Z,12.20
2023-04-08T03:35:55.410Z,11.45
2023-04-08T03:37:56.890Z,11.18
2023-04-08T03:39:58.412Z,12.63
2023-04-08T03:42:00.999Z,11.30
2023-04-08T03:44:02.449Z,12.32
2023-04-08T03:46:03.988Z,11.73
2023-04-08T03:48:06.009Z,11.55
2023-04-08T03:50:07.985Z,13.00
2023-04-08T03:52:09.457Z,12.52
2023-04-08T03:54:11.014Z,12.73
2023-04-08T03:56:12.554Z,12.88
2023-04-08T03:58:14.004Z,13.07
2023-04-08T04:00:15.651Z,13.30
2023-04-08T04:02:17.209Z,12.90
2023-04-08T04:04:19.127Z,13.73
2023-04-08T04:06:21.110Z,13.48
2023-04-08T04:08:22.808Z,12.93
2023-04-08T04:10:24.349Z,13.88
2023-04-08T04:12:26.518Z,13.02
2023-04-08T04:14:28.080Z,14.63
2023-04-08T04:16:32.238Z,15.60
2023-04-08T04:18:34.394Z,14.15
2023-04-08T04:20:36.339Z,13.60
2023-04-08T04:22:37.806Z,14.27
2023-04-08T04:24:39.293Z,13.85
2023-04-08T04:26:42.041Z,14.65
2023-04-08T04:28:43.551Z,14.43
2023-04-08T04:30:45.773Z,14.25
2023-04-08T04:32:47.346Z,13.73
2023-04-08T04:34:48.826Z,14.32
2023-04-08T04:36:50.392Z,14.70
2023-04-08T04:38:52.192Z,13.95
2023-04-08T04:40:54.001Z,15.23
2023-04-08T04:42:55.563Z,13.35
2023-04-08T04:44:57.079Z,13.70
2023-04-08T04:46:58.562Z,14.68
2023-04-08T04:49:00.051Z,15.13
2023-04-08T04:51:05.143Z,14.60
2023-04-08T04:53:06.621Z,13.98
2023-04-08T04:55:08.584Z,13.75
2023-04-08T04:57:11.316Z,13.73
2023-04-08T04:59:12.996Z,14.20
2023-04-08T05:01:14.488Z,14.27
2023-04-08T05:03:16.715Z,13.40
2023-04-08T05:05:18.508Z,14.13
2023-04-08T05:07:20.212Z,14.63
2023-04-08T05:09:21.705Z,15.52
2023-04-08T05:11:23.218Z,15.35
2023-04-08T05:13:24.683Z,13.45
2023-04-08T05:15:26.198Z,14.32
2023-04-08T05:17:27.768Z,14.38
2023-04-08T05:19:29.211Z,14.65
2023-04-08T05:21:30.802Z,14.70
2023-04-08T05:23:32.305Z,13.60
2023-04-08T05:25:33.794Z,14.63
2023-04-08T05:27:35.759Z,14.65
2023-04-08T05:29:37.279Z,14.27
2023-04-08T05:31:38.766Z,14.27
2023-04-08T05:33:40.460Z,12.88
2023-04-08T05:35:41.932Z,14.63
2023-04-08T05:37:43.417Z,13.15
2023-04-08T05:39:44.867Z,13.50
2023-04-08T05:41:46.738Z,12.68
2023-04-08T05:43:48.232Z,13.13
2023-04-08T05:45:49.758Z,12.75
2023-04-08T05:47:51.459Z,13.23
2023-04-08T05:49:53.237Z,12.75
2023-04-08T05:51:54.753Z,13.55
2023-04-08T05:53:56.461Z,14.10
2023-04-08T05:55:57.907Z,14.85
2023-04-08T05:57:59.359Z,13.85
2023-04-08T06:00:00.864Z,13.25
2023-04-08T06:02:02.461Z,12.60
2023-04-08T06:04:04.168Z,12.85
2023-04-08T06:06:11.940Z,13.18
2023-04-08T06:08:13.781Z,12.38
2023-04-08T06:10:15.983Z,11.75
2023-04-08T06:12:17.424Z,11.63
2023-04-08T06:14:20.583Z,12.57
2023-04-08T06:16:22.225Z,11.40
2023-04-08T06:18:23.716Z,11.90
2023-04-08T06:20:25.650Z,11.43
2023-04-08T06:22:27.457Z,11.55
2023-04-08T06:24:32.828Z,11.52
2023-04-08T06:26:34.293Z,10.68
2023-04-08T06:28:35.913Z,10.98
2023-04-08T06:30:37.370Z,10.90
2023-04-08T06:32:38.883Z,12.27
2023-04-08T06:34:41.136Z,12.52
2023-04-08T06:36:42.653Z,11.18
2023-04-08T06:38:44.116Z,14.20
2023-04-08T06:42:47.079Z,11.85
2023-04-08T06:44:48.529Z,10.93
2023-04-08T06:46:50.015Z,11.30
2023-04-08T06:48:51.735Z,10.13
2023-04-08T06:50:53.429Z,10.48
2023-04-08T06:52:55.428Z,10.38
2023-04-08T06:54:57.138Z,10.88
2023-04-08T06:56:58.573Z,10.35
2023-04-08T06:59:00.221Z,11.27
2023-04-08T07:01:03.216Z,9.82
2023-04-08T07:03:04.719Z,11.02
2023-04-08T07:05:07.144Z,11.38
2023-04-08T07:07:09.477Z,10.50
2023-04-08T07:09:11.416Z,10.05
2023-04-08T07:11:12.989Z,10.23
2023-04-08T07:13:14.569Z,10.70
2023-04-08T07:15:16.052Z,10.50
2023-04-08T07:17:17.508Z,10.88
2023-04-08T07:19:18.977Z,10.68
2023-04-08T07:21:20.541Z,11.05
2023-04-08T07:23:22.341Z,10.45
2023-04-08T07:25:23.808Z,11.55
2023-04-08T07:27:25.439Z,10.50
2023-04-08T07:29:27.991Z,11.10
2023-04-08T07:31:29.558Z,11.02
2023-04-08T07:33:31.230Z,10.15
2023-04-08T07:35:34.134Z,10.68
2023-04-08T07:37:35.720Z,11.02
2023-04-08T07:39:37.205Z,10.32
2023-04-08T07:41:38.686Z,11.13
2023-04-08T07:43:40.171Z,10.38
2023-04-08T07:45:41.648Z,11.13
2023-04-08T07:47:44.559Z,11.43
2023-04-08T07:49:47.071Z,12.25
2023-04-08T07:51:48.526Z,10.07
2023-04-08T07:53:49.993Z,9.85
2023-04-08T07:55:51.456Z,11.20
2023-04-08T07:57:53.141Z,12.45
2023-04-08T07:59:54.741Z,10.93
2023-04-08T08:01:56.498Z,16.05
2023-04-08T08:03:58.491Z,13.88
2023-04-08T08:06:00.710Z,13.48
2023-04-08T08:08:02.186Z,12.30
2023-04-08T08:10:03.754Z,14.02
2023-04-08T08:12:05.241Z,11.73
2023-04-08T08:14:07.958Z,11.52
2023-04-08T08:16:11.584Z,11.52
2023-04-08T08:18:13.402Z,11.80
2023-04-08T08:20:14.897Z,12.90
2023-04-08T08:22:16.554Z,13.07
2023-04-08T08:24:18.063Z,12.35
2023-04-08T08:26:19.571Z,12.13
2023-04-08T08:28:21.204Z,12.43
2023-04-08T08:30:22.808Z,12.02
2023-04-08T08:32:24.438Z,12.00
2023-04-08T08:34:26.054Z,12.63
2023-04-08T08:36:27.582Z,12.43
2023-04-08T08:38:29.113Z,12.60
2023-04-08T08:40:30.907Z,12.90
2023-04-08T08:42:34.330Z,14.20
2023-04-08T08:44:36.168Z,13.70
2023-04-08T08:46:44.829Z,12.80
2023-04-08T08:48:46.768Z,12.20
2023-04-08T08:50:48.370Z,12.63
2023-04-08T08:52:53.051Z,12.95
2023-04-08T08:55:01.395Z,12.32
2023-04-08T08:57:03.027Z,13.00
2023-04-08T08:59:04.543Z,12.23
2023-04-08T09:01:31.678Z,12.35
2023-04-08T09:03:33.412Z,12.88
2023-04-08T09:05:56.757Z,11.93
2023-04-08T09:07:58.203Z,12.55
2023-04-08T09:09:59.926Z,12.60
2023-04-08T09:12:04.904Z,12.88
2023-04-08T09:14:17.448Z,12.35
2023-04-08T09:16:19.882Z,12.82
2023-04-08T09:18:23.290Z,12.32
2023-04-08T09:20:24.961Z,12.32
2023-04-08T09:22:26.927Z,12.10
2023-04-08T09:24:30.820Z,13.05
2023-04-08T09:26:32.668Z,12.93
2023-04-08T09:28:34.159Z,15.18
2023-04-08T09:30:35.652Z,12.98
2023-04-08T09:32:59.251Z,12.05
2023-04-08T09:35:00.781Z,12.13
2023-04-08T09:37:02.393Z,11.80
2023-04-08T09:39:03.976Z,12.40
2023-04-08T09:41:08.761Z,11.95
2023-04-08T09:43:13.597Z,12.27
2023-04-08T09:45:17.250Z,12.95
2023-04-08T09:47:23.794Z,11.73
2023-04-08T09:49:25.427Z,13.55
2023-04-08T09:51:33.237Z,11.77
2023-04-08T09:53:38.694Z,12.35
2023-04-08T09:55:43.723Z,11.30
2023-04-08T09:58:08.336Z,12.43
2023-04-08T10:00:13.332Z,12.50
2023-04-08T10:02:18.674Z,11.88
2023-04-08T10:04:23.141Z,12.27
2023-04-08T10:06:31.375Z,12.20
2023-04-08T10:08:33.398Z,12.50
2023-04-08T10:10:37.136Z,12.60
2023-04-08T10:12:39.345Z,12.40
2023-04-08T10:14:40.997Z,13.73
2023-04-08T10:16:42.778Z,13.25
2023-04-08T10:18:44.595Z,14.13
2023-04-08T10:20:47.881Z,13.52
2023-04-08T10:22:49.647Z,13.45
2023-04-08T10:25:16.528Z,14.85
2023-04-08T10:27:41.348Z,14.20
2023-04-08T10:29:42.939Z,14.13
2023-04-08T10:31:50.584Z,14.77
2023-04-08T10:33:53.068Z,14.43
2023-04-08T10:35:59.749Z,14.45
2023-04-08T10:38:02.070Z,14.68
2023-04-08T10:40:05.455Z,14.35
2023-04-08T10:42:08.469Z,15.10
2023-04-08T10:44:16.898Z,13.95
2023-04-08T10:46:18.361Z,14.23
2023-04-08T10:48:24.862Z,15.02
2023-04-08T10:50:27.035Z,14.23
2023-04-08T10:52:28.613Z,14.18
2023-04-08T10:54:30.140Z,15.95
2023-04-08T10:56:31.697Z,15.85
2023-04-08T10:58:33.887Z,15.55
2023-04-08T11:00:40.127Z,16.23
2023-04-08T11:02:41.836Z,15.95
2023-04-08T11:04:44.611Z,16.70
2023-04-08T11:06:47.417Z,16.73
2023-04-08T11:08:49.115Z,16.77
2023-04-08T11:10:51.650Z,17.27
2023-04-08T11:12:56.667Z,17.10
2023-04-08T11:14:58.231Z,17.35
2023-04-08T11:17:01.511Z,17.15
2023-04-08T11:19:05.395Z,17.90
2023-04-08T11:21:13.025Z,16.88
2023-04-08T11:23:14.904Z,17.67
2023-04-08T11:25:16.939Z,17.20
2023-04-08T11:27:18.520Z,17.65
2023-04-08T11:29:21.195Z,17.00
2023-04-08T11:31:24.969Z,17.73
2023-04-08T11:33:29.479Z,17.33
2023-04-08T11:35:33.981Z,16.98
2023-04-08T11:37:40.969Z,15.70
2023-04-08T11:39:43.438Z,16.67
2023-04-08T11:41:44.910Z,16.42
2023-04-08T11:43:57.169Z,16.20
2023-04-08T11:45:58.856Z,16.05
2023-04-08T11:48:00.854Z,17.35
2023-04-08T11:50:04.009Z,16.95
2023-04-08T11:52:05.515Z,16.25
2023-04-08T11:54:07.493Z,16.48
2023-04-08T11:56:19.661Z,16.75
2023-04-08T11:58:21.585Z,15.93
2023-04-08T12:00:24.061Z,16.42
2023-04-08T12:02:26.110Z,15.88
2023-04-08T12:04:28.019Z,16.33
2023-04-08T12:06:29.744Z,16.35
2023-04-08T12:08:31.409Z,16.52
2023-04-08T12:10:33.133Z,15.43
2023-04-08T12:12:34.644Z,17.13
2023-04-08T12:14:36.130Z,16.13
2023-04-08T12:16:37.711Z,17.67
2023-04-08T12:18:39.352Z,16.58
2023-04-08T12:20:41.068Z,16.90
2023-04-08T12:22:42.661Z,17.10
2023-04-08T12:24:44.422Z,16.95
2023-04-08T12:26:45.951Z,16.08
2023-04-08T12:28:47.508Z,15.68
2023-04-08T12:30:48.976Z,15.93
2023-04-08T12:32:50.493Z,17.65
2023-04-08T12:34:52.420Z,18.08
2023-04-08T12:36:55.413Z,15.88
2023-04-08T12:38:57.117Z,16.70
2023-04-08T12:40:58.614Z,16.70
2023-04-08T12:43:00.110Z,16.67
2023-04-08T12:45:01.689Z,15.90
2023-04-08T12:47:03.205Z,16.27
2023-04-08T12:49:05.899Z,16.17
2023-04-08T12:51:10.228Z,16.52
2023-04-08T12:53:11.737Z,16.80
2023-04-08T12:55:13.231Z,16.30
2023-04-08T12:57:14.692Z,16.23
2023-04-08T12:59:16.325Z,16.80
2023-04-08T13:01:17.822Z,17.13
2023-04-08T13:03:19.455Z,17.02
2023-04-08T13:05:29.497Z,15.88
2023-04-08T13:07:41.566Z,17.15
2023-04-08T13:09:44.774Z,17.95
2023-04-08T13:11:47.261Z,17.35
2023-04-08T13:13:49.409Z,18.05
2023-04-08T13:15:50.962Z,17.52
2023-04-08T13:17:52.456Z,17.92
2023-04-08T13:19:53.991Z,17.65
2023-04-08T13:21:55.610Z,17.42
2023-04-08T13:23:57.091Z,18.08
2023-04-08T13:25:58.655Z,18.10
2023-04-08T13:28:00.256Z,17.15
2023-04-08T13:30:01.756Z,18.55
2023-04-08T13:32:03.363Z,17.52
2023-04-08T13:34:04.877Z,16.90
2023-04-08T13:36:06.786Z,18.40
2023-04-08T13:38:08.558Z,17.60
2023-04-08T13:40:10.480Z,17.80
2023-04-08T13:42:11.958Z,17.08
2023-04-08T13:44:13.449Z,16.35
2023-04-08T13:46:14.990Z,16.55
2023-04-08T13:48:16.553Z,17.05
2023-04-08T13:50:18.033Z,16.63
2023-04-08T13:52:20.105Z,18.52
2023-04-08T13:54:21.733Z,17.60
2023-04-08T13:56:23.352Z,17.67
2023-04-08T13:58:26.486Z,16.83
2023-04-08T14:00:28.075Z,18.42
2023-04-08T14:02:29.581Z,16.98
2023-04-08T14:04:31.283Z,17.73
2023-04-08T14:06:32.758Z,17.13
2023-04-08T14:08:34.229Z,17.60
2023-04-08T14:10:36.055Z,17.67
2023-04-08T14:12:37.523Z,17.63
2023-04-08T14:14:39.051Z,17.83
2023-04-08T14:16:41.730Z,18.85
2023-04-08T14:18:43.238Z,17.08
2023-04-08T14:20:44.831Z,18.13
2023-04-08T14:22:46.333Z,18.08
2023-04-08T14:24:47.805Z,17.58
2023-04-08T14:26:49.342Z,17.30
2023-04-08T14:28:51.007Z,17.60
2023-04-08T14:30:52.755Z,18.80
2023-04-08T14:32:54.863Z,17.48
2023-04-08T14:34:56.465Z,17.85
2023-04-08T14:36:57.954Z,17.92
2023-04-08T14:38:59.519Z,18.65
2023-04-08T14:41:01.114Z,19.00
2023-04-08T14:43:02.586Z,19.30
2023-04-08T14:45:04.312Z,20.00
2023-04-08T14:47:05.840Z,20.45
2023-04-08T14:49:07.298Z,20.25
2023-04-08T14:51:08.773Z,20.50
2023-04-08T14:53:10.565Z,21.15
2023-04-08T14:55:12.157Z,21.50
2023-04-08T14:57:13.736Z,22.83
2023-04-08T14:59:15.266Z,21.40
2023-04-08T15:01:16.831Z,22.67
2023-04-08T15:03:18.948Z,24.45
2023-04-08T15:05:20.896Z,23.75
2023-04-08T15:07:22.700Z,25.50
2023-04-08T15:09:24.245Z,23.67
2023-04-08T15:11:25.718Z,23.40
2023-04-08T15:13:27.182Z,23.77
2023-04-08T15:15:28.927Z,23.77
2023-04-08T15:17:30.865Z,20.70
2023-04-08T15:19:32.478Z,22.05
2023-04-08T15:21:34.003Z,18.92
2023-04-08T15:23:35.565Z,19.80
2023-04-08T15:25:37.095Z,19.08
2023-04-08T15:27:38.913Z,17.95
2023-04-08T15:29:40.379Z,17.98
2023-04-08T15:31:42.092Z,17.30
2023-04-08T15:33:46.490Z,18.42
2023-04-08T15:35:49.561Z,16.98
2023-04-08T15:37:51.156Z,17.48
2023-04-08T15:39:53.928Z,17.30
2023-04-08T15:41:55.901Z,15.60
2023-04-08T15:43:57.378Z,14.63
2023-04-08T15:45:58.887Z,14.20
2023-04-08T15:48:00.615Z,14.25
2023-04-08T15:50:02.392Z,14.15
2023-04-08T15:52:04.355Z,13.38
2023-04-08T15:54:06.039Z,12.60
2023-04-08T15:56:13.816Z,13.50
2023-04-08T15:58:16.314Z,13.70
2023-04-08T16:00:17.860Z,12.23
2023-04-08T16:02:19.869Z,13.70
2023-04-08T16:04:23.000Z,14.43
2023-04-08T16:06:24.669Z,13.55
2023-04-08T16:08:26.351Z,13.10
2023-04-08T16:10:27.854Z,13.73
2023-04-08T16:12:29.337Z,13.00
2023-04-08T16:14:30.862Z,15.18
2023-04-08T16:16:33.002Z,14.68
2023-04-08T16:18:34.694Z,13.88
2023-04-08T16:20:39.400Z,13.68
2023-04-08T16:22:40.861Z,12.48
2023-04-08T16:24:42.399Z,12.50
2023-04-08T16:26:44.286Z,12.95
2023-04-08T16:28:45.761Z,13.88
2023-04-08T16:30:47.951Z,14.45
2023-04-08T16:32:49.655Z,13.57
2023-04-08T16:34:51.160Z,12.52
2023-04-08T16:36:52.817Z,13.35
2023-04-08T16:38:54.726Z,13.73
2023-04-08T16:40:59.824Z,13.32
2023-04-08T16:43:02.522Z,13.05
2023-04-08T16:45:04.365Z,12.80
2023-04-08T16:47:05.921Z,12.02
2023-04-08T16:49:07.360Z,11.77
2023-04-08T16:51:08.909Z,12.43
2023-04-08T16:53:10.558Z,12.48
2023-04-08T16:55:13.449Z,12.95
2023-04-08T16:57:16.752Z,12.40
2023-04-08T16:59:18.274Z,12.45
2023-04-08T17:01:20.462Z,12.77
2023-04-08T17:03:22.324Z,12.35
2023-04-08T17:05:24.048Z,12.43
2023-04-08T17:07:26.702Z,12.75
2023-04-08T17:09:29.489Z,11.98
2023-04-08T17:11:31.142Z,13.00
2023-04-08T17:13:32.634Z,12.02
2023-04-08T17:15:36.377Z,12.55
2023-04-08T17:17:38.004Z,12.23
2023-04-08T17:19:39.841Z,12.65
2023-04-08T17:21:42.675Z,12.90
2023-04-08T17:23:44.161Z,12.18
2023-04-08T17:25:46.437Z,12.25
2023-04-08T17:27:47.898Z,12.38
2023-04-08T17:29:49.744Z,11.80
2023-04-08T17:31:51.287Z,11.30
2023-04-08T17:33:52.801Z,11.70
2023-04-08T17:35:55.801Z,11.88
2023-04-08T17:37:57.545Z,12.50
2023-04-08T17:39:59.009Z,12.35
2023-04-08T17:42:02.039Z,12.98
2023-04-08T17:44:04.794Z,12.80
2023-04-08T17:46:06.352Z,15.27
2023-04-08T17:48:09.831Z,13.93
2023-04-08T17:50:11.932Z,15.10
2023-04-08T17:52:13.556Z,15.15
2023-04-08T17:54:16.701Z,15.70
2023-04-08T17:56:18.158Z,16.40
2023-04-08T17:58:19.605Z,17.13
2023-04-08T18:00:21.666Z,16.55
2023-04-08T18:02:23.240Z,16.20
2023-04-08T18:04:24.868Z,15.48
2023-04-08T18:06:26.366Z,15.55
2023-04-08T18:08:27.955Z,15.75
2023-04-08T18:10:29.420Z,17.85
2023-04-08T18:12:31.624Z,17.95
2023-04-08T18:14:33.162Z,17.73
2023-04-08T18:16:34.718Z,17.75
2023-04-08T18:18:36.788Z,15.85
2023-04-08T18:20:38.309Z,15.63
2023-04-08T18:22:39.749Z,14.70
2023-04-08T18:24:41.211Z,15.43
2023-04-08T18:26:43.836Z,15.20
2023-04-08T18:28:46.083Z,16.40
2023-04-08T18:30:51.882Z,18.70
2023-04-08T18:32:53.480Z,18.17
2023-04-08T18:34:54.960Z,19.20
2023-04-08T18:36:56.430Z,19.50
2023-04-08T18:38:58.391Z,20.65
2023-04-08T18:40:59.825Z,19.13
2023-04-08T18:43:04.169Z,19.67
2023-04-08T18:45:06.445Z,19.73
2023-04-08T18:47:08.432Z,17.30
2023-04-08T18:49:09.922Z,18.17
2023-04-08T18:51:12.556Z,20.30
2023-04-08T18:53:14.194Z,19.30
2023-04-08T18:55:15.806Z,18.45
2023-04-08T18:57:17.277Z,16.48
2023-04-08T18:59:19.279Z,16.73
2023-04-08T19:01:20.903Z,17.17
2023-04-08T19:03:22.520Z,20.67
2023-04-08T19:05:24.213Z,23.63
2023-04-08T19:07:26.523Z,19.67
2023-04-08T19:09:27.970Z,18.55
2023-04-08T19:11:29.885Z,18.10
2023-04-08T19:13:31.402Z,18.90
2023-04-08T19:15:32.907Z,20.17
2023-04-08T19:17:34.533Z,19.58
2023-04-08T19:19:36.165Z,19.35
2023-04-08T19:21:37.946Z,21.05
2023-04-08T19:23:41.291Z,21.13
2023-04-08T19:25:42.740Z,21.45
2023-04-08T19:27:46.017Z,20.05
2023-04-08T19:29:47.552Z,20.77
2023-04-08T19:31:49.013Z,22.02
2023-04-08T19:33:50.738Z,24.52
2023-04-08T19:35:52.429Z,25.92
2023-04-08T19:37:53.895Z,26.77
2023-04-08T19:39:55.445Z,31.10
2023-04-08T19:41:57.006Z,30.83
2023-04-08T19:43:58.478Z,33.42
2023-04-08T19:46:00.014Z,34.13
2023-04-08T19:48:01.824Z,33.28
2023-04-08T19:50:03.362Z,33.00
2023-04-08T19:52:06.128Z,31.05
2023-04-08T19:54:07.628Z,30.02
2023-04-08T19:56:09.395Z,30.33
2023-04-08T19:58:11.313Z,29.70
2023-04-08T20:00:14.387Z,27.75
2023-04-08T20:02:16.259Z,28.65
2023-04-08T20:04:18.036Z,27.45
2023-04-08T20:06:20.170Z,26.83
2023-04-08T20:08:21.674Z,26.98
2023-04-08T20:10:23.180Z,27.95
2023-04-08T20:12:24.713Z,27.63
2023-04-08T20:14:26.338Z,24.20
2023-04-08T20:16:28.071Z,25.05
2023-04-08T20:18:29.589Z,24.95
2023-04-08T20:20:31.151Z,23.15
2023-04-08T20:22:32.695Z,24.27
2023-04-08T20:24:34.188Z,23.23
2023-04-08T20:26:35.763Z,24.10
2023-04-08T20:28:37.218Z,24.88
2023-04-08T20:30:38.758Z,24.92
2023-04-08T20:32:40.214Z,25.08
2023-04-08T20:34:41.838Z,26.55
2023-04-08T20:36:43.672Z,28.05
2023-04-08T20:38:45.340Z,27.65
2023-04-08T20:40:46.843Z,28.23
2023-04-08T20:42:48.342Z,28.42
2023-04-08T20:44:49.810Z,28.65
2023-04-08T20:46:51.473Z,28.30
2023-04-08T20:48:53.306Z,28.63
2023-04-08T20:50:55.126Z,29.38
2023-04-08T20:52:56.641Z,29.15
2023-04-08T20:54:58.281Z,29.70
2023-04-08T20:56:59.767Z,28.88
2023-04-08T20:59:01.295Z,29.60
2023-04-08T21:01:02.921Z,30.80
2023-04-08T21:03:04.627Z,30.35
2023-04-08T21:05:06.266Z,30.33
2023-04-08T21:07:07.812Z,29.85
2023-04-08T21:09:11.251Z,30.80
2023-04-08T21:11:13.108Z,29.40
2023-04-08T21:13:14.566Z,28.85
2023-04-08T21:15:16.119Z,30.45
2023-04-08T21:17:17.663Z,30.27
2023-04-08T21:19:19.125Z,32.30
2023-04-08T21:21:20.791Z,31.63
2023-04-08T21:23:22.624Z,30.98
2023-04-08T21:25:24.834Z,31.48
2023-04-08T21:27:28.385Z,31.17
2023-04-08T21:29:29.829Z,30.67
2023-04-08T21:31:31.642Z,30.92
2023-04-08T21:33:33.163Z,32.08
2023-04-08T21:35:35.290Z,32.40
2023-04-08T21:37:36.872Z,32.50
2023-04-08T21:39:38.404Z,32.00
2023-04-08T21:41:39.863Z,32.47
2023-04-08T21:43:41.340Z,33.05
2023-04-08T21:45:42.830Z,31.20
2023-04-08T21:47:44.369Z,31.23
2023-04-08T21:49:46.029Z,31.05
2023-04-08T21:51:47.511Z,31.38
2023-04-08T21:53:50.804Z,31.60
2023-04-08T21:55:52.841Z,31.83
2023-04-08T21:57:54.323Z,31.95
2023-04-08T21:59:55.789Z,30.73
2023-04-08T22:01:57.430Z,30.58
2023-04-08T22:03:59.111Z,31.60
2023-04-08T22:06:00.909Z,30.73
2023-04-08T22:08:02.574Z,30.92
2023-04-08T22:10:04.274Z,31.25
2023-04-08T22:12:06.072Z,31.60
2023-04-08T22:14:07.571Z,31.30
2023-04-08T22:16:11.018Z,33.10
2023-04-08T22:18:12.482Z,31.27
2023-04-08T22:20:13.982Z,31.95
2023-04-08T22:22:15.484Z,30.60
2023-04-08T22:24:20.581Z,32.78
2023-04-08T22:26:22.109Z,35.20
2023-04-08T22:28:23.666Z,32.75
2023-04-08T22:30:25.343Z,31.58
2023-04-08T22:32:26.856Z,31.13
2023-04-08T22:34:28.339Z,32.53
2023-04-08T22:36:29.897Z,32.17
2023-04-08T22:38:31.799Z,32.03
2023-04-08T22:40:36.037Z,32.85
2023-04-08T22:42:37.696Z,31.88
2023-04-08T22:44:39.204Z,33.53
2023-04-08T22:46:41.082Z,33.97
2023-04-08T22:48:42.577Z,31.90
2023-04-08T22:50:44.128Z,33.42
2023-04-08T22:52:46.377Z,33.10
2023-04-08T22:54:47.912Z,32.30
2023-04-08T22:56:49.396Z,31.92
2023-04-08T22:58:51.185Z,33.72
2023-04-08T23:00:52.876Z,32.67
2023-04-08T23:02:54.550Z,33.53
2023-04-08T23:04:56.277Z,32.63
2023-04-08T23:06:57.759Z,33.75
2023-04-08T23:08:59.474Z,32.40
2023-04-08T23:11:01.074Z,33.38
2023-04-08T23:13:02.586Z,34.30
2023-04-08T23:15:04.530Z,34.28
2023-04-08T23:17:06.253Z,32.47
2023-04-08T23:19:07.718Z,34.65
2023-04-08T23:21:09.244Z,33.45
2023-04-08T23:23:10.806Z,33.33
2023-04-08T23:25:12.339Z,31.98
2023-04-08T23:27:13.811Z,33.20
2023-04-08T23:29:15.655Z,31.27
2023-04-08T23:31:17.219Z,31.17
2023-04-08T23:33:18.750Z,29.95
2023-04-08T23:35:20.235Z,30.45
2023-04-08T23:37:21.720Z,28.52
2023-04-08T23:39:23.228Z,30.60
2023-04-08T23:41:24.723Z,31.60
2023-04-08T23:43:26.287Z,31.63
2023-04-08T23:45:27.756Z,29.27
2023-04-08T23:47:31.156Z,28.50
2023-04-08T23:49:32.748Z,28.48
2023-04-08T23:51:34.201Z,29.27
2023-04-08T23:53:35.876Z,27.55
2023-04-08T23:55:37.358Z,29.00
2023-04-08T23:57:42.635Z,27.80
2023-04-08T23:59:44.104Z,28.95
